sensor_id;sensor_type;location;lat;lon;timestamp;temperature;humidity
38936;DHT22;66589;47.458;9.644;2023-04-01T00:02:18;10.90;69.60
38936;DHT22;66589;47.458;9.644;2023-04-01T00:04:44;10.90;69.50
38936;DHT22;66589;47.458;9.644;2023-04-01T00:07:10;10.80;69.30
38936;DHT22;66589;47.458;9.644;2023-04-01T00:09:36;10.80;69.70
38936;DHT22;66589;47.458;9.644;2023-04-01T00:12:02;10.80;69.90
38936;DHT22;66589;47.458;9.644;2023-04-01T00:14:27;10.80;69.90
38936;DHT22;66589;47.458;9.644;2023-04-01T00:16:54;10.80;69.90
38936;DHT22;66589;47.458;9.644;2023-04-01T00:19:20;10.80;69.00
38936;DHT22;66589;47.458;9.644;2023-04-01T00:21:45;10.70;69.60
38936;DHT22;66589;47.458;9.644;2023-04-01T00:24:11;10.80;70.10
38936;DHT22;66589;47.458;9.644;2023-04-01T00:26:37;10.70;70.40
38936;DHT22;66589;47.458;9.644;2023-04-01T00:29:03;10.70;70.50
38936;DHT22;66589;47.458;9.644;2023-04-01T00:31:28;10.70;70.80
38936;DHT22;66589;47.458;9.644;2023-04-01T00:33:55;10.70;70.40
38936;DHT22;66589;47.458;9.644;2023-04-01T00:36:22;10.70;70.90
38936;DHT22;66589;47.458;9.644;2023-04-01T00:38:48;10.60;70.20
38936;DHT22;66589;47.458;9.644;2023-04-01T00:41:15;10.60;70.40
38936;DHT22;66589;47.458;9.644;2023-04-01T00:43:47;10.70;70.60
38936;DHT22;66589;47.458;9.644;2023-04-01T00:46:14;10.70;70.30
38936;DHT22;66589;47.458;9.644;2023-04-01T00:48:43;10.60;70.50
38936;DHT22;66589;47.458;9.644;2023-04-01T00:51:17;10.70;70.30
38936;DHT22;66589;47.458;9.644;2023-04-01T00:53:47;10.60;70.80
38936;DHT22;66589;47.458;9.644;2023-04-01T00:56:19;10.60;71.00
38936;DHT22;66589;47.458;9.644;2023-04-01T00:58:51;10.60;71.10
38936;DHT22;66589;47.458;9.644;2023-04-01T01:01:17;10.60;70.50
38936;DHT22;66589;47.458;9.644;2023-04-01T01:03:44;10.70;68.60
38936;DHT22;66589;47.458;9.644;2023-04-01T01:08:52;10.80;68.00
38936;DHT22;66589;47.458;9.644;2023-04-01T01:11:36;10.90;67.50
38936;DHT22;66589;47.458;9.644;2023-04-01T01:14:21;10.90;67.30
38936;DHT22;66589;47.458;9.644;2023-04-01T01:16:58;11.00;66.90
38936;DHT22;66589;47.458;9.644;2023-04-01T01:22:16;11.00;66.60
38936;DHT22;66589;47.458;9.644;2023-04-01T01:27:39;11.10;67.20
38936;DHT22;66589;47.458;9.644;2023-04-01T01:30:35;11.10;66.60
38936;DHT22;66589;47.458;9.644;2023-04-01T01:33:29;11.10;66.80
38936;DHT22;66589;47.458;9.644;2023-04-01T01:35:59;11.10;66.80
38936;DHT22;66589;47.458;9.644;2023-04-01T01:38:29;11.00;66.80
38936;DHT22;66589;47.458;9.644;2023-04-01T01:40:57;11.00;67.70
38936;DHT22;66589;47.458;9.644;2023-04-01T01:43:29;11.00;67.40
38936;DHT22;66589;47.458;9.644;2023-04-01T01:45:58;11.00;66.70
38936;DHT22;66589;47.458;9.644;2023-04-01T01:48:26;11.00;67.10
38936;DHT22;66589;47.458;9.644;2023-04-01T01:50:53;11.10;66.80
38936;DHT22;66589;47.458;9.644;2023-04-01T01:53:19;11.10;66.30
38936;DHT22;66589;47.458;9.644;2023-04-01T01:55:46;11.10;66.90
38936;DHT22;66589;47.458;9.644;2023-04-01T01:58:25;11.10;67.00
38936;DHT22;66589;47.458;9.644;2023-04-01T02:00:55;11.10;66.80
38936;DHT22;66589;47.458;9.644;2023-04-01T02:03:24;11.00;67.70
38936;DHT22;66589;47.458;9.644;2023-04-01T02:05:53;10.90;67.40
38936;DHT22;66589;47.458;9.644;2023-04-01T02:08:28;11.00;68.60
38936;DHT22;66589;47.458;9.644;2023-04-01T02:11:02;10.90;67.50
38936;DHT22;66589;47.458;9.644;2023-04-01T02:13:35;10.90;68.00
38936;DHT22;66589;47.458;9.644;2023-04-01T02:16:08;10.90;68.20
38936;DHT22;66589;47.458;9.644;2023-04-01T02:18:36;10.80;69.20
38936;DHT22;66589;47.458;9.644;2023-04-01T02:21:04;10.90;68.90
38936;DHT22;66589;47.458;9.644;2023-04-01T02:23:33;10.80;68.70
38936;DHT22;66589;47.458;9.644;2023-04-01T02:26:01;10.80;68.40
38936;DHT22;66589;47.458;9.644;2023-04-01T02:28:29;10.80;68.20
38936;DHT22;66589;47.458;9.644;2023-04-01T02:30:57;10.80;69.20
38936;DHT22;66589;47.458;9.644;2023-04-01T02:33:25;10.80;68.00
38936;DHT22;66589;47.458;9.644;2023-04-01T02:35:52;10.80;68.00
38936;DHT22;66589;47.458;9.644;2023-04-01T02:38:18;10.80;67.80
38936;DHT22;66589;47.458;9.644;2023-04-01T02:40:50;10.80;67.30
38936;DHT22;66589;47.458;9.644;2023-04-01T02:43:16;10.70;67.60
38936;DHT22;66589;47.458;9.644;2023-04-01T02:45:43;10.80;68.00
38936;DHT22;66589;47.458;9.644;2023-04-01T02:48:08;10.70;68.30
38936;DHT22;66589;47.458;9.644;2023-04-01T02:50:34;10.70;68.50
38936;DHT22;66589;47.458;9.644;2023-04-01T02:53:01;10.70;68.70
38936;DHT22;66589;47.458;9.644;2023-04-01T02:55:29;10.60;69.30
38936;DHT22;66589;47.458;9.644;2023-04-01T02:57:55;10.60;69.50
38936;DHT22;66589;47.458;9.644;2023-04-01T03:00:21;10.60;70.10
38936;DHT22;66589;47.458;9.644;2023-04-01T03:02:47;10.60;69.60
38936;DHT22;66589;47.458;9.644;2023-04-01T03:05:12;10.60;68.40
38936;DHT22;66589;47.458;9.644;2023-04-01T03:07:38;10.60;67.60
38936;DHT22;66589;47.458;9.644;2023-04-01T03:10:06;10.70;67.00
38936;DHT22;66589;47.458;9.644;2023-04-01T03:12:31;10.70;64.90
38936;DHT22;66589;47.458;9.644;2023-04-01T03:14:57;10.70;65.10
38936;DHT22;66589;47.458;9.644;2023-04-01T03:17:23;10.80;65.60
38936;DHT22;66589;47.458;9.644;2023-04-01T03:19:49;10.80;65.10
38936;DHT22;66589;47.458;9.644;2023-04-01T03:22:14;10.80;65.00
38936;DHT22;66589;47.458;9.644;2023-04-01T03:24:40;10.80;64.70
38936;DHT22;66589;47.458;9.644;2023-04-01T03:27:06;10.80;63.30
38936;DHT22;66589;47.458;9.644;2023-04-01T03:29:31;10.80;63.60
38936;DHT22;66589;47.458;9.644;2023-04-01T03:31:57;10.80;64.20
38936;DHT22;66589;47.458;9.644;2023-04-01T03:34:24;10.80;64.10
38936;DHT22;66589;47.458;9.644;2023-04-01T03:36:51;10.80;63.70
38936;DHT22;66589;47.458;9.644;2023-04-01T03:39:17;10.80;63.70
38936;DHT22;66589;47.458;9.644;2023-04-01T03:41:44;10.80;64.10
38936;DHT22;66589;47.458;9.644;2023-04-01T03:44:11;10.80;63.90
38936;DHT22;66589;47.458;9.644;2023-04-01T03:46:37;10.80;64.10
38936;DHT22;66589;47.458;9.644;2023-04-01T03:49:06;10.80;63.70
38936;DHT22;66589;47.458;9.644;2023-04-01T03:51:40;10.70;63.50
38936;DHT22;66589;47.458;9.644;2023-04-01T03:54:07;10.70;63.60
38936;DHT22;66589;47.458;9.644;2023-04-01T03:56:33;10.80;63.30
38936;DHT22;66589;47.458;9.644;2023-04-01T03:59:03;10.80;64.10
38936;DHT22;66589;47.458;9.644;2023-04-01T04:01:29;10.80;64.70
38936;DHT22;66589;47.458;9.644;2023-04-01T04:03:55;10.80;64.00
38936;DHT22;66589;47.458;9.644;2023-04-01T04:06:22;10.80;64.10
38936;DHT22;66589;47.458;9.644;2023-04-01T04:08:48;10.80;64.00
38936;DHT22;66589;47.458;9.644;2023-04-01T04:11:14;10.80;64.60
38936;DHT22;66589;47.458;9.644;2023-04-01T04:13:41;10.70;64.10
38936;DHT22;66589;47.458;9.644;2023-04-01T04:16:07;10.70;64.00
38936;DHT22;66589;47.458;9.644;2023-04-01T04:18:33;10.70;63.60
38936;DHT22;66589;47.458;9.644;2023-04-01T04:20:59;10.70;63.40
38936;DHT22;66589;47.458;9.644;2023-04-01T04:23:25;10.70;63.90
38936;DHT22;66589;47.458;9.644;2023-04-01T04:28:25;10.60;64.10
38936;DHT22;66589;47.458;9.644;2023-04-01T04:30:51;10.50;64.10
38936;DHT22;66589;47.458;9.644;2023-04-01T04:33:17;10.40;64.20
38936;DHT22;66589;47.458;9.644;2023-04-01T04:35:43;10.40;64.00
38936;DHT22;66589;47.458;9.644;2023-04-01T04:38:08;10.40;63.80
38936;DHT22;66589;47.458;9.644;2023-04-01T04:40:36;10.40;64.20
38936;DHT22;66589;47.458;9.644;2023-04-01T04:43:03;10.50;64.20
38936;DHT22;66589;47.458;9.644;2023-04-01T04:45:29;10.50;64.30
38936;DHT22;66589;47.458;9.644;2023-04-01T04:47:54;10.50;65.10
38936;DHT22;66589;47.458;9.644;2023-04-01T04:50:20;10.50;65.00
38936;DHT22;66589;47.458;9.644;2023-04-01T04:52:46;10.40;64.80
38936;DHT22;66589;47.458;9.644;2023-04-01T04:55:12;10.40;65.20
38936;DHT22;66589;47.458;9.644;2023-04-01T04:57:37;10.30;64.50
38936;DHT22;66589;47.458;9.644;2023-04-01T05:00:03;10.30;65.30
38936;DHT22;66589;47.458;9.644;2023-04-01T05:02:29;10.20;64.90
38936;DHT22;66589;47.458;9.644;2023-04-01T05:04:55;10.30;64.50
38936;DHT22;66589;47.458;9.644;2023-04-01T05:07:20;10.30;64.90
38936;DHT22;66589;47.458;9.644;2023-04-01T05:09:46;10.40;64.50
38936;DHT22;66589;47.458;9.644;2023-04-01T05:12:12;10.50;64.90
38936;DHT22;66589;47.458;9.644;2023-04-01T05:14:38;10.60;66.50
38936;DHT22;66589;47.458;9.644;2023-04-01T05:17:11;10.60;67.80
38936;DHT22;66589;47.458;9.644;2023-04-01T05:19:38;10.70;66.70
38936;DHT22;66589;47.458;9.644;2023-04-01T05:22:04;10.70;67.20
38936;DHT22;66589;47.458;9.644;2023-04-01T05:24:30;10.60;67.60
38936;DHT22;66589;47.458;9.644;2023-04-01T05:26:56;10.60;70.00
38936;DHT22;66589;47.458;9.644;2023-04-01T05:29:23;10.60;67.10
38936;DHT22;66589;47.458;9.644;2023-04-01T05:31:49;10.60;69.10
38936;DHT22;66589;47.458;9.644;2023-04-01T05:34:15;10.60;70.40
38936;DHT22;66589;47.458;9.644;2023-04-01T05:36:42;10.70;67.90
38936;DHT22;66589;47.458;9.644;2023-04-01T05:39:08;10.70;67.50
38936;DHT22;66589;47.458;9.644;2023-04-01T05:41:37;10.70;66.80
38936;DHT22;66589;47.458;9.644;2023-04-01T05:44:03;10.70;70.40
38936;DHT22;66589;47.458;9.644;2023-04-01T05:46:28;10.80;68.30
38936;DHT22;66589;47.458;9.644;2023-04-01T05:48:54;10.80;68.10
38936;DHT22;66589;47.458;9.644;2023-04-01T05:51:20;10.80;68.10
38936;DHT22;66589;47.458;9.644;2023-04-01T05:53:46;10.80;67.50
38936;DHT22;66589;47.458;9.644;2023-04-01T05:56:12;10.90;67.30
38936;DHT22;66589;47.458;9.644;2023-04-01T05:58:38;10.90;67.20
38936;DHT22;66589;47.458;9.644;2023-04-01T06:01:09;11.00;68.40
38936;DHT22;66589;47.458;9.644;2023-04-01T06:03:36;10.90;67.10
38936;DHT22;66589;47.458;9.644;2023-04-01T06:06:02;11.00;66.80
38936;DHT22;66589;47.458;9.644;2023-04-01T06:08:30;11.10;67.30
38936;DHT22;66589;47.458;9.644;2023-04-01T06:19:54;11.60;65.60
38936;DHT22;66589;47.458;9.644;2023-04-01T06:31:06;11.80;67.20
38936;DHT22;66589;47.458;9.644;2023-04-01T06:44:49;11.40;68.90
38936;DHT22;66589;47.458;9.644;2023-04-01T06:50:11;11.80;68.50
38936;DHT22;66589;47.458;9.644;2023-04-01T06:55:42;13.40;66.90
38936;DHT22;66589;47.458;9.644;2023-04-01T06:58:23;16.50;59.50
38936;DHT22;66589;47.458;9.644;2023-04-01T07:00:53;19.30;52.70
38936;DHT22;66589;47.458;9.644;2023-04-01T07:06:35;22.60;46.10
38936;DHT22;66589;47.458;9.644;2023-04-01T07:09:12;24.00;43.30
38936;DHT22;66589;47.458;9.644;2023-04-01T07:11:40;24.10;42.00
38936;DHT22;66589;47.458;9.644;2023-04-01T07:14:22;23.90;41.70
38936;DHT22;66589;47.458;9.644;2023-04-01T07:17:08;22.80;42.10
38936;DHT22;66589;47.458;9.644;2023-04-01T07:20:00;22.20;45.50
38936;DHT22;66589;47.458;9.644;2023-04-01T07:25:11;23.60;41.90
38936;DHT22;66589;47.458;9.644;2023-04-01T07:27:37;22.30;43.50
38936;DHT22;66589;47.458;9.644;2023-04-01T07:30:13;21.70;43.90
38936;DHT22;66589;47.458;9.644;2023-04-01T07:32:44;21.50;44.60
38936;DHT22;66589;47.458;9.644;2023-04-01T07:35:13;21.00;45.30
38936;DHT22;66589;47.458;9.644;2023-04-01T07:40:49;19.50;47.80
38936;DHT22;66589;47.458;9.644;2023-04-01T07:48:39;18.70;51.40
38936;DHT22;66589;47.458;9.644;2023-04-01T07:56:39;18.80;50.50
38936;DHT22;66589;47.458;9.644;2023-04-01T08:04:58;16.30;54.80
38936;DHT22;66589;47.458;9.644;2023-04-01T08:07:35;15.80;58.20
38936;DHT22;66589;47.458;9.644;2023-04-01T08:15:33;14.90;58.20
38936;DHT22;66589;47.458;9.644;2023-04-01T08:21:05;14.50;59.60
38936;DHT22;66589;47.458;9.644;2023-04-01T08:23:38;14.50;59.90
38936;DHT22;66589;47.458;9.644;2023-04-01T08:26:28;14.40;58.80
38936;DHT22;66589;47.458;9.644;2023-04-01T08:29:14;14.00;61.70
38936;DHT22;66589;47.458;9.644;2023-04-01T08:31:43;13.90;62.00
38936;DHT22;66589;47.458;9.644;2023-04-01T08:34:20;14.00;61.20
38936;DHT22;66589;47.458;9.644;2023-04-01T08:37:02;14.00;62.40
38936;DHT22;66589;47.458;9.644;2023-04-01T08:39:46;14.00;61.50
38936;DHT22;66589;47.458;9.644;2023-04-01T08:43:11;14.20;61.20
38936;DHT22;66589;47.458;9.644;2023-04-01T09:26:23;13.50;63.40
38936;DHT22;66589;47.458;9.644;2023-04-01T09:37:10;13.30;63.80
38936;DHT22;66589;47.458;9.644;2023-04-01T09:40:14;13.30;63.20
38936;DHT22;66589;47.458;9.644;2023-04-01T09:51:39;13.50;65.00
38936;DHT22;66589;47.458;9.644;2023-04-01T10:22:16;13.10;65.40
38936;DHT22;66589;47.458;9.644;2023-04-01T10:47:19;13.10;65.60
38936;DHT22;66589;47.458;9.644;2023-04-01T11:15:11;13.40;64.20
38936;DHT22;66589;47.458;9.644;2023-04-01T11:21:01;13.40;65.40
38936;DHT22;66589;47.458;9.644;2023-04-01T11:23:27;13.50;63.50
38936;DHT22;66589;47.458;9.644;2023-04-01T11:31:25;14.10;59.70
38936;DHT22;66589;47.458;9.644;2023-04-01T11:42:49;14.40;61.90
38936;DHT22;66589;47.458;9.644;2023-04-01T11:59:26;15.10;59.40
38936;DHT22;66589;47.458;9.644;2023-04-01T12:14:54;15.10;59.40
38936;DHT22;66589;47.458;9.644;2023-04-01T12:19:26;15.30;59.10
38936;DHT22;66589;47.458;9.644;2023-04-01T12:22:07;15.40;57.80
38936;DHT22;66589;47.458;9.644;2023-04-01T12:37:45;15.60;57.50
38936;DHT22;66589;47.458;9.644;2023-04-01T12:41:02;15.70;58.10
38936;DHT22;66589;47.458;9.644;2023-04-01T12:54:08;14.90;60.30
38936;DHT22;66589;47.458;9.644;2023-04-01T12:59:24;15.00;60.00
38936;DHT22;66589;47.458;9.644;2023-04-01T13:02:11;15.00;58.20
38936;DHT22;66589;47.458;9.644;2023-04-01T13:13:24;15.00;60.00
38936;DHT22;66589;47.458;9.644;2023-04-01T13:16:05;15.00;58.90
38936;DHT22;66589;47.458;9.644;2023-04-01T13:29:38;15.40;60.30
38936;DHT22;66589;47.458;9.644;2023-04-01T13:32:18;15.60;58.20
38936;DHT22;66589;47.458;9.644;2023-04-01T13:35:15;15.70;56.50
38936;DHT22;66589;47.458;9.644;2023-04-01T13:46:05;15.60;57.70
38936;DHT22;66589;47.458;9.644;2023-04-01T13:57:27;16.20;56.40
38936;DHT22;66589;47.458;9.644;2023-04-01T14:29:02;15.30;57.20
38936;DHT22;66589;47.458;9.644;2023-04-01T14:48:13;14.90;58.00
38936;DHT22;66589;47.458;9.644;2023-04-01T14:50:49;14.80;58.30
38936;DHT22;66589;47.458;9.644;2023-04-01T14:55:54;14.70;58.80
38936;DHT22;66589;47.458;9.644;2023-04-01T14:58:22;14.60;60.20
38936;DHT22;66589;47.458;9.644;2023-04-01T15:03:47;14.60;61.00
38936;DHT22;66589;47.458;9.644;2023-04-01T15:15:29;15.10;58.30
38936;DHT22;66589;47.458;9.644;2023-04-01T15:18:08;15.00;58.10
38936;DHT22;66589;47.458;9.644;2023-04-01T15:26:13;14.70;60.00
38936;DHT22;66589;47.458;9.644;2023-04-01T15:39:57;14.30;60.40
38936;DHT22;66589;47.458;9.644;2023-04-01T15:42:28;14.20;60.70
38936;DHT22;66589;47.458;9.644;2023-04-01T15:56:16;14.00;64.30
38936;DHT22;66589;47.458;9.644;2023-04-01T16:01:50;13.20;64.70
38936;DHT22;66589;47.458;9.644;2023-04-01T16:04:31;12.70;70.00
38936;DHT22;66589;47.458;9.644;2023-04-01T16:16:11;12.30;73.00
38936;DHT22;66589;47.458;9.644;2023-04-01T16:18:58;12.30;73.50
38936;DHT22;66589;47.458;9.644;2023-04-01T16:24:20;12.30;74.00
38936;DHT22;66589;47.458;9.644;2023-04-01T16:26:57;12.30;74.60
38936;DHT22;66589;47.458;9.644;2023-04-01T16:29:38;12.40;76.00
38936;DHT22;66589;47.458;9.644;2023-04-01T16:32:46;12.30;75.40
38936;DHT22;66589;47.458;9.644;2023-04-01T16:35:46;12.30;74.90
38936;DHT22;66589;47.458;9.644;2023-04-01T16:43:39;12.30;72.50
38936;DHT22;66589;47.458;9.644;2023-04-01T16:59:36;12.30;68.90
38936;DHT22;66589;47.458;9.644;2023-04-01T17:02:10;12.30;68.60
38936;DHT22;66589;47.458;9.644;2023-04-01T17:22:17;12.30;70.70
38936;DHT22;66589;47.458;9.644;2023-04-01T17:44:33;11.70;74.30
38936;DHT22;66589;47.458;9.644;2023-04-01T17:55:13;11.40;74.10
38936;DHT22;66589;47.458;9.644;2023-04-01T17:57:46;11.30;74.40
38936;DHT22;66589;47.458;9.644;2023-04-01T18:09:20;11.00;74.30
38936;DHT22;66589;47.458;9.644;2023-04-01T18:22:08;11.10;74.10
38936;DHT22;66589;47.458;9.644;2023-04-01T18:29:55;11.20;73.30
38936;DHT22;66589;47.458;9.644;2023-04-01T18:32:35;11.20;73.10
38936;DHT22;66589;47.458;9.644;2023-04-01T18:35:29;11.10;72.30
38936;DHT22;66589;47.458;9.644;2023-04-01T18:40:47;11.20;72.90
38936;DHT22;66589;47.458;9.644;2023-04-01T18:46:46;11.20;72.70
38936;DHT22;66589;47.458;9.644;2023-04-01T18:49:45;11.10;72.90
38936;DHT22;66589;47.458;9.644;2023-04-01T19:03:06;10.90;73.30
38936;DHT22;66589;47.458;9.644;2023-04-01T19:05:40;10.90;73.60
38936;DHT22;66589;47.458;9.644;2023-04-01T19:08:33;10.90;73.40
38936;DHT22;66589;47.458;9.644;2023-04-01T19:14:23;10.80;73.70
38936;DHT22;66589;47.458;9.644;2023-04-01T19:17:15;10.80;74.10
38936;DHT22;66589;47.458;9.644;2023-04-01T19:25:34;10.60;75.60
38936;DHT22;66589;47.458;9.644;2023-04-01T19:35:46;10.50;77.70
38936;DHT22;66589;47.458;9.644;2023-04-01T19:38:29;10.40;77.90
38936;DHT22;66589;47.458;9.644;2023-04-01T19:52:39;10.10;78.10
38936;DHT22;66589;47.458;9.644;2023-04-01T19:58:20;10.10;78.50
38936;DHT22;66589;47.458;9.644;2023-04-01T20:00:52;10.10;78.80
38936;DHT22;66589;47.458;9.644;2023-04-01T20:03:50;10.20;77.70
38936;DHT22;66589;47.458;9.644;2023-04-01T20:06:35;10.20;77.80
38936;DHT22;66589;47.458;9.644;2023-04-01T20:14:51;10.30;77.30
38936;DHT22;66589;47.458;9.644;2023-04-01T20:17:32;10.30;76.60
38936;DHT22;66589;47.458;9.644;2023-04-01T20:25:23;10.30;75.80
38936;DHT22;66589;47.458;9.644;2023-04-01T20:41:34;10.30;77.10
38936;DHT22;66589;47.458;9.644;2023-04-01T20:49:50;10.30;75.50
38936;DHT22;66589;47.458;9.644;2023-04-01T20:52:42;10.40;75.20
38936;DHT22;66589;47.458;9.644;2023-04-01T20:58:17;10.30;75.40
38936;DHT22;66589;47.458;9.644;2023-04-01T21:12:01;10.40;74.20
38936;DHT22;66589;47.458;9.644;2023-04-01T21:23:01;10.50;74.00
38936;DHT22;66589;47.458;9.644;2023-04-01T21:31:47;10.50;74.20
38936;DHT22;66589;47.458;9.644;2023-04-01T21:37:02;10.40;74.30
38936;DHT22;66589;47.458;9.644;2023-04-01T21:40:15;10.40;74.50
38936;DHT22;66589;47.458;9.644;2023-04-01T21:46:01;10.50;74.70
38936;DHT22;66589;47.458;9.644;2023-04-01T22:00:20;10.40;75.30
38936;DHT22;66589;47.458;9.644;2023-04-01T22:14:33;10.40;77.20
38936;DHT22;66589;47.458;9.644;2023-04-01T22:17:26;10.30;77.90
38936;DHT22;66589;47.458;9.644;2023-04-01T22:20:40;10.10;77.80
38936;DHT22;66589;47.458;9.644;2023-04-01T22:23:30;10.10;75.20
38936;DHT22;66589;47.458;9.644;2023-04-01T22:31:47;10.30;76.10
38936;DHT22;66589;47.458;9.644;2023-04-01T22:34:28;10.30;76.40
38936;DHT22;66589;47.458;9.644;2023-04-01T22:42:14;10.20;78.40
38936;DHT22;66589;47.458;9.644;2023-04-01T22:44:57;10.00;77.90
38936;DHT22;66589;47.458;9.644;2023-04-01T22:50:14;10.10;77.70
38936;DHT22;66589;47.458;9.644;2023-04-01T22:52:43;10.10;77.80
38936;DHT22;66589;47.458;9.644;2023-04-01T22:55:30;10.10;78.10
38936;DHT22;66589;47.458;9.644;2023-04-01T22:58:10;10.10;78.50
38936;DHT22;66589;47.458;9.644;2023-04-01T23:01:01;10.00;78.20
38936;DHT22;66589;47.458;9.644;2023-04-01T23:03:33;10.10;78.20
38936;DHT22;66589;47.458;9.644;2023-04-01T23:06:02;10.00;77.80
38936;DHT22;66589;47.458;9.644;2023-04-01T23:11:20;10.00;78.40
38936;DHT22;66589;47.458;9.644;2023-04-01T23:13:57;10.00;78.40
38936;DHT22;66589;47.458;9.644;2023-04-01T23:16:33;10.00;79.10
38936;DHT22;66589;47.458;9.644;2023-04-01T23:19:11;9.90;79.90
38936;DHT22;66589;47.458;9.644;2023-04-01T23:21:46;9.80;80.30
38936;DHT22;66589;47.458;9.644;2023-04-01T23:24:25;9.80;80.60
38936;DHT22;66589;47.458;9.644;2023-04-01T23:27:33;9.80;80.80
38936;DHT22;66589;47.458;9.644;2023-04-01T23:30:02;9.70;81.40
38936;DHT22;66589;47.458;9.644;2023-04-01T23:32:29;9.60;81.70
38936;DHT22;66589;47.458;9.644;2023-04-01T23:34:57;9.60;82.10
38936;DHT22;66589;47.458;9.644;2023-04-01T23:37:24;9.50;82.40
38936;DHT22;66589;47.458;9.644;2023-04-01T23:39:57;9.50;82.20
38936;DHT22;66589;47.458;9.644;2023-04-01T23:42:32;9.50;82.30
38936;DHT22;66589;47.458;9.644;2023-04-01T23:45:24;9.50;82.90
38936;DHT22;66589;47.458;9.644;2023-04-01T23:47:50;9.60;82.20
38936;DHT22;66589;47.458;9.644;2023-04-01T23:50:24;9.60;82.00
38936;DHT22;66589;47.458;9.644;2023-04-01T23:53:11;9.60;81.60
38936;DHT22;66589;47.458;9.644;2023-04-01T23:55:40;9.60;81.60
38936;DHT22;66589;47.458;9.644;2023-04-01T23:58:16;9.70;81.50
